Tiempo atmosférico en la estación meteorológica de Mogán, Puerto, Las Palmas (10 m.)



Fecha
DESCASC
Temp. máxima en grados centígrados (hora)
DESCASC
Temp. mínima en grados centígrados (hora)
DESCASC
Temp. media en grados centígrados
DESCASC
Racha de viento máxima en m/sg (hora)
DESCASC
Velocidad máxima media en intervalos de 10 minutos(hora)
DESCASC
Precipitaciones diarias en mm
DESCASC
Precipitaciones de 00:00 a 06:00 en mm
DESCASC
Precipitaciones de 06:00 a 12:00 en mm
DESCASC
Precipitaciones de 12:00 a 18:00 en mm
DESCASC
Precipitaciones de 18:00 a 24:00 en mm
DESCASC
17-10-2019 25.6 (10:50) 21 (23:59) 23.3 6.67 (18:20) 5.28 (18:20) 0 0 0 0 0
16-10-2019 27.3 (14:20) 21.6 (04:50) 24.4 6.39 (17:20) 3.89 (17:20) 0 0 0 0 0
15-10-2019 25.3 (14:50) 19.8 (07:40) 22.5 6.39 (14:10) 5 (18:20) 0 0 0 0 0
14-10-2019 26.3 (12:20) 18.8 (07:40) 22.5 7.22 (19:40) 5.83 (19:40) 0 0 0 0 0
13-10-2019 25 (11:10) 20.7 (00:00) 22.9 7.5 (15:50) 5 (16:00) 0 0 0 0 0
12-10-2019 26.5 (14:00) 19.5 (00:00) 23 8.33 (18:20) 6.39 (18:20) 0 0 0 0 0
11-10-2019 26.2 (13:10) 19.2 (00:00) 22.7 6.39 (14:20) 5.28 (14:20) 0 0 0 0 0
10-10-2019 26.2 (15:30) 19.1 (00:00) 22.7 8.33 (17:50) 7.22 (17:40) 0 0 0 0 0
09-10-2019 26.3 (11:10) 19.6 (00:00) 22.9 6.94 (22:30) 3.33 (15:00) 0 0 0 0 0
08-10-2019 26.8 (15:10) 19.9 (00:00) 23.3 10 (20:00) 7.78 (19:50) 0 0 0 0 0
07-10-2019 25.6 (17:20) 21.9 (00:00) 23.8 6.11 (18:20) 5.28 (18:20) 0 0 0 0 0
06-10-2019 27.6 (14:00) 20.3 (00:00) 23.9 5.83 (04:10) 3.89 (19:30) 0 0 0 0 0
05-10-2019 27.9 (14:00) 20.4 (00:00) 24.1 6.39 (22:40) 5 (18:50) 0 0 0 0 0
04-10-2019 27.1 (15:20) 21.2 (00:00) 24.2 7.5 (17:30) 5.83 (17:30) 0 0 0 0 0
03-10-2019 30.1 (15:20) 21.3 (00:00) 25.7 4.17 (21:20) 3.33 (01:10) 0 0 0 0 0
02-10-2019 29.3 (13:10) 21.4 (00:00) 25.3 5.83 (18:50) 5 (18:50) 0 0 0 0 0
01-10-2019 29.1 (15:10) 21.4 (00:00) 25.3 6.11 (11:10) 5 (11:20) 0 0 0 0 0
30-09-2019 29.6 (11:40) 21.2 (00:00) 25.4 7.5 (18:30) 6.39 (18:40) 0 0 0 0 0
29-09-2019 27 (13:40) 21 (00:00) 24 4.72 (15:40) 3.61 (19:50) 0 0 0 0 0
28-09-2019 26.9 (14:00) 20.4 (00:00) 23.6 7.78 (18:30) 6.94 (18:40) 0 0 0 0 0
27-09-2019 27.4 (13:10) 20.5 (00:00) 23.9 7.5 (16:40) 6.39 (16:40) 0 0 0 0 0
26-09-2019 27 (14:10) 20 (00:00) 23.5 8.61 (19:20) 7.5 (19:20) 0 0 0 0 0
25-09-2019 26.3 (16:00) 19.6 (00:00) 22.9 7.22 (08:00) 6.39 (17:50) 0 0 0 0 0
24-09-2019 27.1 (14:50) 20.5 (00:00) 23.8 8.06 (18:50) 7.22 (18:40) 0 0 0 0 0
23-09-2019 27.7 (14:10) 21.9 (00:00) 24.8 5.83 (16:10) 4.72 (16:10) 0 0 0 0 0
22-09-2019 27.3 (14:00) 20.7 (00:00) 24 5.28 (21:20) 4.72 (21:20) 0 0 0 0 0
21-09-2019 25.9 (15:00) 19.7 (00:00) 22.8 5.28 (19:10) 4.44 (19:10) 0 0 0 0 0
20-09-2019 26.8 (14:00) 19.8 (00:00) 23.3 10.56 (09:50) 6.94 (09:50) 0 0 0 0 0

Gráficas

Temp. máximas Temp. mínimas Temp. medias Precipitaciones Rachas de viento máximas Velocidades máximas media en intervalos de 10 minutos

Datos horarios

Fecha y hora oficial Temperatura (ºC) Velocidad del viento (km/h) Dirección del viento Racha (km/h) Dirección de racha Precipitación (mm) Presión (hPa) Tendencia (hPa) Humedad (%)
2019-10-19 23:00:00 22.1 4 Oeste 10 Oeste 0 -- -- 74
2019-10-19 22:00:00 22.4 8 Oeste 11 Oeste 0 -- -- 74
2019-10-19 21:00:00 22.4 2 Sudoeste 11 Sudeste 0 -- -- 72
2019-10-19 20:00:00 22.8 10 Sudeste 22 Sudeste 0 -- -- 69
2019-10-19 19:00:00 23.8 20 Sudeste 23 Sudeste 0 -- -- 67
2019-10-19 18:00:00 25.2 6 Sudeste 9 Sur 0 -- -- 62
2019-10-19 17:00:00 25.9 4 Sur 15 Sur 0 -- -- 61
2019-10-19 16:00:00 24.9 10 Sur 19 Oeste 0 -- -- 62
2019-10-19 15:00:00 24.9 12 Oeste 19 Oeste 0 -- -- 63
2019-10-19 14:00:00 24.8 11 Oeste 15 Oeste 0 -- -- 63
2019-10-19 13:00:00 24.3 7 Sudoeste 13 Sur 0 -- -- 64
2019-10-19 12:00:00 24 9 Sudeste 13 Sudeste 0 -- -- 66
2019-10-19 11:00:00 25 4 Este 12 Norte 0 -- -- 62
2019-10-19 10:00:00 20.7 11 Norte 16 Norte 0 -- -- 65
2019-10-19 09:00:00 19.5 12 Norte 17 Norte 0 -- -- 68
2019-10-19 08:00:00 18.8 14 Norte 18 Norte 0 -- -- 71
2019-10-19 07:00:00 19.1 12 Norte 16 Norte 0 -- -- 71
2019-10-19 06:00:00 19 12 Norte 17 Norte 0 -- -- 71
2019-10-19 05:00:00 19.3 13 Norte 17 Norte 0 -- -- 71
2019-10-19 04:00:00 19.6 11 Norte 15 Nordeste 0 -- -- 72
2019-10-19 03:00:00 19.9 12 Norte 14 Nordeste 0 -- -- 72
2019-10-19 02:00:00 20.1 11 Norte 14 Norte 0 -- -- 72
2019-10-19 01:00:00 20.5 10 Norte 13 Norte 0 -- -- 71
2019-10-19 00:00:00 21.1 9 Norte 11 Norte 0 -- -- 71
2019-10-18 23:00:00 22 8 Este 15 Este 0 -- -- 71
2019-10-18 22:00:00 22.1 11 Sudeste 14 Sudeste 0 -- -- 71
2019-10-18 21:00:00 22 0 Calma 12 Oeste 0 -- -- 70
2019-10-18 20:00:00 22.3 6 Oeste 12 Sur 0 -- -- 68
2019-10-18 19:00:00 23.4 9 Sur 18 Sudeste 0 -- -- 66
2019-10-18 18:00:00 24.6 17 Sudeste 25 Sudeste 0 -- -- 61
2019-10-18 17:00:00 23.8 17 Sudeste 20 Sudeste 0 -- -- 62
2019-10-18 16:00:00 25.2 14 Sudeste 18 Sudeste 0 -- -- 60
2019-10-18 15:00:00 25.3 6 Sur 14 Sur 0 -- -- 60
2019-10-18 14:00:00 23.8 12 Sudoeste 15 Sur 0 -- -- 63
2019-10-18 13:00:00 23.6 10 Sudoeste 13 Sudoeste 0 -- -- 62
2019-10-18 12:00:00 25.1 6 Sur 12 Sudeste 0 -- -- 60
2019-10-18 11:00:00 24.1 12 Sudeste 17 Sudeste 0 -- -- 62
2019-10-18 10:00:00 21.8 12 Norte 19 Nordeste 0 -- -- 62
2019-10-18 09:00:00 19.9 14 Norte 20 Norte 0 -- -- 67
2019-10-18 08:00:00 19.1 15 Norte 18 Norte 0 -- -- 67
2019-10-18 07:00:00 19.1 13 Norte 17 Norte 0 -- -- 67
2019-10-18 06:00:00 19.2 14 Norte 18 Norte 0 -- -- 67
2019-10-18 05:00:00 19.3 13 Norte 17 Norte 0 -- -- 67
2019-10-18 04:00:00 20 12 Norte 15 Norte 0 -- -- 66
2019-10-18 03:00:00 20.4 9 Norte 13 Nordeste 0 -- -- 67
2019-10-18 02:00:00 20.3 9 Norte 15 Norte 0 -- -- 67
2019-10-18 01:00:00 20.6 10 Norte 14 Norte 0 -- -- 67
2019-10-18 00:00:00 21.1 9 Norte 10 Norte 0 -- -- 66
2019-10-17 23:00:00 21.8 0 Calma 14 Oeste 0 -- -- 66
2019-10-17 22:00:00 22.2 11 Oeste 18 Oeste 0 -- -- 66
2019-10-17 21:00:00 22.3 9 Oeste 13 Noroeste 0 -- -- 66
2019-10-17 20:00:00 22.1 6 Oeste 16 Sudoeste 0 -- -- 66
2019-10-17 19:00:00 22.6 12 Sudoeste 24 Sudoeste 0 -- -- 65
2019-10-17 18:00:00 23.2 15 Sudoeste 21 Sudoeste 0 -- -- 63
2019-10-17 17:00:00 23.1 16 Sudoeste 22 Sudoeste 0 -- -- 63
2019-10-17 16:00:00 23.8 13 Sudoeste 22 Sudoeste 0 -- -- 61
2019-10-17 15:00:00 24.5 13 Oeste 19 Oeste 0 -- -- 60
2019-10-17 14:00:00 24.1 13 Oeste 19 Oeste 0 -- -- 62
2019-10-17 13:00:00 23.8 8 Sudoeste 16 Sudoeste 0 -- -- 63
2019-10-17 12:00:00 23.8 8 Sudoeste 12 Sudoeste 0 -- -- 63
2019-10-17 11:00:00 25.1 6 Sur 11 Sur 0 -- -- 62
2019-10-17 10:00:00 25.1 0 Calma 8 Norte 0 -- -- 66
2019-10-17 09:00:00 21.9 4 Norte 9 Norte 0 -- -- 70
2019-10-17 08:00:00 21.9 6 Nordeste 14 Sudeste 0 -- -- 71
2019-10-17 07:00:00 21.9 6 Este 9 Oeste 0 -- -- 71
2019-10-17 06:00:00 22.1 3 Oeste 12 Oeste 0 -- -- 71
2019-10-17 05:00:00 22.2 6 Noroeste 10 Noroeste 0 -- -- 70
2019-10-17 04:00:00 22 0 Calma 11 Este 0 -- -- 71
2019-10-17 03:00:00 22 9 Sudeste 18 Sur 0 -- -- 72
2019-10-17 02:00:00 22.2 9 Sur 17 Sur 0 -- -- 72
2019-10-17 01:00:00 22.4 3 Nordeste 9 Noroeste 0 -- -- 67
2019-10-17 00:00:00 22.6 4 Oeste 16 Oeste 0 -- -- 68
2019-10-16 23:00:00 22.6 5 Norte 14 Nordeste 0 -- -- 69
2019-10-16 22:00:00 22.6 3 Norte 15 Oeste 0 -- -- 71
2019-10-16 21:00:00 22.5 8 Sudoeste 12 Sudoeste 0 -- -- 71
2019-10-16 20:00:00 22.5 6 Sudeste 8 Sudeste 0 -- -- 71
2019-10-16 19:00:00 22.8 4 Sudeste 11 Oeste 0 -- -- 68
2019-10-16 18:00:00 22.8 7 Oeste 23 Noroeste 0 -- -- 69
2019-10-16 17:00:00 22.7 12 Oeste 20 Oeste 0 -- -- 68
2019-10-16 16:00:00 22.8 12 Oeste 18 Oeste 0 -- -- 68
2019-10-16 15:00:00 23.9 4 Oeste 10 Oeste 0 -- -- 66
2019-10-16 14:00:00 24.8 0 Calma 14 Sur 0 -- -- 67
2019-10-16 13:00:00 23 5 Sudoeste 14 Oeste 0 -- -- 67
2019-10-16 12:00:00 22.9 10 Sudoeste 15 Sudoeste 0 -- -- 68
2019-10-16 11:00:00 23.1 5 Sudoeste 9 Oeste 0 -- -- 68
2019-10-16 10:00:00 22.5 5 Sudeste 16 Este 0 -- -- 70
2019-10-16 09:00:00 22.3 9 Sudeste 15 Sudeste 0 -- -- 71
2019-10-16 08:00:00 21.9 0 Calma 4 Nordeste 0 -- -- 71
2019-10-16 07:00:00 21.8 0 Calma 8 Noroeste 0 -- -- 71
2019-10-16 06:00:00 21.9 5 Norte 10 Norte 0 -- -- 71
2019-10-16 05:00:00 21.8 3 Norte 8 Norte 0 -- -- 70
2019-10-16 04:00:00 22 2 Noroeste 6 Noroeste 0 -- -- 68
2019-10-16 03:00:00 21.9 0 Calma 8 Sur 0 -- -- 70
2019-10-16 02:00:00 22.2 6 Sudoeste 20 Oeste 0 -- -- 70
2019-10-16 01:00:00 22.1 13 Oeste 19 Oeste 0 -- -- 70
2019-10-16 00:00:00 22.2 13 Sudoeste 18 Sudoeste 0 -- -- 68
2019-10-15 23:00:00 22.4 9 Sudoeste 13 Sudoeste 0 -- -- 69
2019-10-15 22:00:00 22.4 9 Oeste 21 Oeste 0 -- -- 67
2019-10-15 21:00:00 22.5 10 Oeste 20 Oeste 0 -- -- 67
2019-10-15 20:00:00 22.9 13 Oeste 22 Sudoeste 0 -- -- 67
2019-10-15 19:00:00 22.7 14 Sudoeste 22 Sudoeste 0 -- -- 68
2019-10-15 18:00:00 23.5 13 Sur 20 Sur 0 -- -- 67
2019-10-15 17:00:00 23.6 15 Sur 20 Sudoeste 0 -- -- 67
2019-10-15 16:00:00 23.7 15 Sudoeste 21 Oeste 0 -- -- 64
2019-10-15 15:00:00 24.9 9 Sudoeste 23 Sur 0 -- -- 61
2019-10-15 14:00:00 24.4 9 Sur 17 Sudeste 0 -- -- 65
2019-10-15 13:00:00 24.5 9 Sudoeste 14 Sudoeste 0 -- -- 63
2019-10-15 12:00:00 24.2 9 Oeste 13 Sudoeste 0 -- -- 65
2019-10-15 11:00:00 24.6 7 Oeste 10 Oeste 0 -- -- 65
2019-10-15 10:00:00 23.4 2 Norte 13 Norte 0 -- -- 66
2019-10-15 09:00:00 21 9 Norte 15 Norte 0 -- -- 68
2019-10-15 08:00:00 20.1 12 Norte 17 Norte 0 -- -- 70
2019-10-15 07:00:00 20.1 11 Norte 15 Norte 0 -- -- 70
2019-10-15 06:00:00 20.4 12 Norte 16 Norte 0 -- -- 68
2019-10-15 05:00:00 20.6 6 Norte 14 Norte 0 -- -- 71
2019-10-15 04:00:00 20.9 10 Norte 14 Norte 0 -- -- 71
2019-10-15 03:00:00 20.8 10 Norte 13 Norte 0 -- -- 70
2019-10-15 02:00:00 21.1 6 Nordeste 11 Sudoeste 0 -- -- 72
2019-10-15 01:00:00 22.3 5 Sur 11 Sudeste 0 -- -- 74
2019-10-15 00:00:00 22 0 Calma 7 Oeste 0 -- -- 70
2019-10-14 23:00:00 22.5 5 Oeste 8 Oeste 0 -- -- 71
2019-10-14 22:00:00 22.6 3 Este 14 Sudeste 0 -- -- 71
2019-10-14 21:00:00 22.9 12 Sudeste 16 Este 0 -- -- 71
2019-10-14 20:00:00 23.1 13 Este 26 Este 0 -- -- 68
2019-10-14 19:00:00 25 10 Sudeste 13 Sudeste 0 -- -- 61
2019-10-14 18:00:00 25.1 6 Oeste 15 Sudoeste 0 -- -- 62
2019-10-14 17:00:00 24.4 10 Sudoeste 14 Sudoeste 0 -- -- 62
2019-10-14 16:00:00 25.6 6 Sudeste 15 Sudoeste 0 -- -- 61
2019-10-14 15:00:00 24.2 11 Sudoeste 17 Sudoeste 0 -- -- 66
2019-10-14 14:00:00 24.5 11 Sudoeste 14 Sudoeste 0 -- -- 65
2019-10-14 13:00:00 25.1 7 Sur 13 Sudeste 0 -- -- 63
2019-10-14 12:00:00 25.9 4 Sur 8 Sudoeste 0 -- -- 60
2019-10-14 11:00:00 24.9 3 Sudoeste 8 Noroeste 0 -- -- 61
2019-10-14 10:00:00 21.5 6 Nordeste 17 Norte 0 -- -- 57
2019-10-14 09:00:00 19.4 14 Norte 17 Norte 0 -- -- 62
2019-10-14 08:00:00 19 12 Norte 17 Norte 0 -- -- 66
2019-10-14 07:00:00 19.2 10 Norte 17 Norte 0 -- -- 70
2019-10-14 06:00:00 19.4 13 Norte 16 Norte 0 -- -- 71
2019-10-14 05:00:00 19.2 12 Norte 15 Norte 0 -- -- 72
2019-10-14 04:00:00 19.8 10 Norte 12 Norte 0 -- -- 72
2019-10-14 03:00:00 20 10 Norte 13 Nordeste 0 -- -- 72
2019-10-14 02:00:00 20.2 7 Norte 9 Nordeste 0 -- -- 71
2019-10-14 01:00:00 21.3 3 Este 15 Este 0 -- -- 70
2019-10-14 00:00:00 21.6 6 Este 13 Sudeste 0 -- -- 70
2019-10-13 23:00:00 22 9 Sudeste 14 Sudeste 0 -- -- 70
2019-10-13 22:00:00 22.2 10 Sudeste 12 Este 0 -- -- 68
2019-10-13 21:00:00 22.2 0 Calma 9 Sudoeste 0 -- -- 66
2019-10-13 20:00:00 22.5 6 Oeste 14 Sudoeste 0 -- -- 63
2019-10-13 19:00:00 23.4 10 Oeste 18 Oeste 0 -- -- 62
2019-10-13 18:00:00 23.9 12 Oeste 25 Oeste 0 -- -- 61
2019-10-13 17:00:00 23.7 16 Oeste 24 Oeste 0 -- -- 60
2019-10-13 16:00:00 23.9 18 Oeste 27 Oeste 0 -- -- 58
2019-10-13 15:00:00 24.2 14 Oeste 21 Oeste 0 -- -- 58
2019-10-13 14:00:00 24.5 14 Oeste 24 Oeste 0 -- -- 56
2019-10-13 13:00:00 24 14 Oeste 20 Oeste 0 -- -- 59
2019-10-13 12:00:00 23.9 13 Oeste 18 Noroeste 0 -- -- 59
2019-10-13 11:00:00 24.5 7 Sudoeste 10 Sudoeste 0 -- -- 65
2019-10-13 10:00:00 24.1 6 Sudeste 9 Sudeste 0 -- -- 66
2019-10-13 09:00:00 21.2 5 Norte 8 Norte 0 -- -- 71
2019-10-13 08:00:00 20.8 6 Norte 8 Nordeste 0 -- -- 71
2019-10-13 07:00:00 21 5 Norte 7 Norte 0 -- -- 72
2019-10-13 06:00:00 21.2 0 Calma 3 Nordeste 0 -- -- 71
2019-10-13 05:00:00 21.4 0 Calma 8 Sudoeste 0 -- -- 70
2019-10-13 04:00:00 22.1 5 Sudoeste 10 Sudoeste 0 -- -- 69
2019-10-13 03:00:00 22.3 8 Sudoeste 12 Sudoeste 0 -- -- 71
2019-10-13 02:00:00 22.3 10 Sudoeste 13 Sudoeste 0 -- -- 71
2019-10-13 01:00:00 22.1 6 Sudoeste 13 Sudoeste 0 -- -- 71
2019-10-13 00:00:00 22.4 6 Sudoeste 9 Sudoeste 0 -- -- 70
2019-10-12 23:00:00 22.2 3 Sudoeste 9 Sur 0 -- -- 70
2019-10-12 22:00:00 22.4 6 Sudeste 19 Sudeste 0 -- -- 71
2019-10-12 21:00:00 22.5 15 Sudeste 24 Sudeste 0 -- -- 71
2019-10-12 20:00:00 22.6 19 Sudeste 25 Sudeste 0 -- -- 69
2019-10-12 19:00:00 23.5 21 Sudeste 30 Este 0 -- -- 67
2019-10-12 18:00:00 23.8 15 Sudeste 23 Sur 0 -- -- 62
2019-10-12 17:00:00 24.7 5 Sur 13 Sudoeste 0 -- -- 62
2019-10-12 16:00:00 24.3 7 Sudoeste 15 Sudoeste 0 -- -- 62
2019-10-12 15:00:00 24.5 8 Sudoeste 12 Sudoeste 0 -- -- 61
2019-10-12 14:00:00 26 8 Sur 12 Sur 0 -- -- 58
2019-10-12 13:00:00 25.2 6 Sudoeste 10 Oeste 0 -- -- 60
2019-10-12 12:00:00 25.5 6 Sur 10 Sur 0 -- -- 61
2019-10-12 11:00:00 25 5 Sur 8 Norte 0 -- -- 62
2019-10-12 10:00:00 22.3 6 Nordeste 17 Norte 0 -- -- 61
2019-10-12 09:00:00 20 13 Norte 16 Norte 0 -- -- 65
2019-10-12 08:00:00 19.5 13 Norte 17 Nordeste 0 -- -- 67
2019-10-12 07:00:00 19.9 13 Norte 15 Norte 0 -- -- 66
2019-10-12 06:00:00 20 13 Norte 15 Norte 0 -- -- 66
2019-10-12 05:00:00 20.3 12 Norte 14 Norte 0 -- -- 66
2019-10-12 04:00:00 20.9 10 Norte 13 Norte 0 -- -- 65
2019-10-12 03:00:00 21.1 10 Norte 13 Norte 0 -- -- 65
2019-10-12 02:00:00 21 5 Norte 9 Norte 0 -- -- 73
2019-10-12 01:00:00 21.3 5 Nordeste 10 Este 0 -- -- 75
2019-10-12 00:00:00 21.8 3 Nordeste 11 Oeste 0 -- -- 73
2019-10-11 23:00:00 22.1 8 Oeste 15 Oeste 0 -- -- 75
2019-10-11 22:00:00 22.2 9 Oeste 13 Oeste 0 -- -- 75
2019-10-11 21:00:00 22.3 7 Oeste 10 Oeste 0 -- -- 73
2019-10-11 20:00:00 22.4 5 Sur 11 Sur 0 -- -- 72
2019-10-11 19:00:00 23.1 9 Sudeste 14 Sur 0 -- -- 69
2019-10-11 18:00:00 23.6 9 Sudeste 13 Sudeste 0 -- -- 66
2019-10-11 17:00:00 25.6 8 Sur 10 Sur 0 -- -- 61
2019-10-11 16:00:00 25.4 8 Sur 17 Sudeste 0 -- -- 61
2019-10-11 15:00:00 24 15 Sudeste 23 Sudeste 0 -- -- 62
2019-10-11 14:00:00 23.9 18 Sudeste 21 Sudeste 0 -- -- 65
2019-10-11 13:00:00 25.7 9 Sur 16 Sudoeste 0 -- -- 61
2019-10-11 12:00:00 24.1 12 Sudoeste 17 Oeste 0 -- -- 65
2019-10-11 11:00:00 23.6 9 Oeste 15 Noroeste 0 -- -- 68
2019-10-11 10:00:00 22.6 6 Norte 14 Norte 0 -- -- 60
2019-10-11 09:00:00 20.4 12 Norte 17 Norte 0 -- -- 63
2019-10-11 08:00:00 19.4 14 Norte 17 Norte 0 -- -- 68
2019-10-11 07:00:00 19.6 12 Norte 15 Norte 0 -- -- 70
2019-10-11 06:00:00 19.9 9 Norte 12 Norte 0 -- -- 71
2019-10-11 05:00:00 20.5 8 Norte 12 Norte 0 -- -- 72
2019-10-11 04:00:00 20.4 10 Norte 12 Norte 0 -- -- 75
2019-10-11 03:00:00 20.7 7 Norte 9 Norte 0 -- -- 79
2019-10-11 02:00:00 21.3 6 Norte 8 Norte 0 -- -- 79
2019-10-11 01:00:00 21.9 0 Calma 4 Nordeste 0 -- -- 78
2019-10-11 00:00:00 21.9 0 Calma 10 Oeste 0 -- -- 78
2019-10-10 23:00:00 22.5 7 Oeste 10 Oeste 0 -- -- 78
2019-10-10 22:00:00 22.5 5 Sudoeste 17 Sudoeste 0 -- -- 78
2019-10-10 21:00:00 22.5 13 Sur 24 Sudeste 0 -- -- 81
2019-10-10 20:00:00 22.6 17 Sudeste 28 Sudeste 0 -- -- 81
2019-10-10 19:00:00 23.4 18 Sudeste 27 Sudeste 0 -- -- 74
2019-10-10 18:00:00 24.3 24 Sudeste 30 Sudeste 0 -- -- 69
2019-10-10 17:00:00 24.9 23 Sudeste 26 Sudeste 0 -- -- 66
2019-10-10 16:00:00 25.2 22 Sudeste 25 Sudeste 0 -- -- 63
2019-10-10 15:00:00 25.2 12 Sudeste 23 Sudoeste 0 -- -- 65
2019-10-10 14:00:00 24.6 19 Oeste 26 Oeste 0 -- -- 66
2019-10-10 13:00:00 23.9 17 Oeste 22 Oeste 0 -- -- 67
2019-10-10 12:00:00 23.9 13 Noroeste 18 Oeste 0 -- -- 68
2019-10-10 11:00:00 24.2 8 Oeste 11 Oeste 0 -- -- 65
2019-10-10 10:00:00 21.9 6 Norte 17 Nordeste 0 -- -- 66
2019-10-10 09:00:00 20 13 Norte 18 Norte 0 -- -- 71
2019-10-10 08:00:00 19.3 12 Norte 16 Nordeste 0 -- -- 75
2019-10-10 07:00:00 19.7 10 Norte 15 Norte 0 -- -- 75
2019-10-10 06:00:00 19.6 13 Norte 16 Norte 0 -- -- 75
2019-10-10 05:00:00 20 9 Norte 13 Norte 0 -- -- 75
2019-10-10 04:00:00 20.5 7 Norte 14 Nordeste 0 -- -- 75
2019-10-10 03:00:00 20.5 8 Nordeste 16 Norte 0 -- -- 76
2019-10-10 02:00:00 21.2 7 Norte 13 Norte 0 -- -- 74
2019-10-10 01:00:00 21.3 6 Norte 10 Norte 0 -- -- 75
2019-10-10 00:00:00 22 2 Este 18 Sudeste 0 -- -- 75
2019-10-09 23:00:00 22.2 12 Sudeste 25 Sudeste 0 -- -- 75
2019-10-09 22:00:00 22.3 10 Sudeste 15 Sudeste 0 -- -- 73
2019-10-09 21:00:00 22.4 8 Sudeste 12 Este 0 -- -- 72
2019-10-09 20:00:00 22.6 6 Sudeste 14 Sudeste 0 -- -- 72
2019-10-09 19:00:00 23.8 9 Sudoeste 17 Sudoeste 0 -- -- 68
2019-10-09 18:00:00 24.9 11 Oeste 15 Oeste 0 -- -- 66
2019-10-09 17:00:00 24.6 8 Sudoeste 16 Sur 0 -- -- 67
2019-10-09 16:00:00 24.6 12 Sur 17 Oeste 0 -- -- 66
2019-10-09 15:00:00 24.1 12 Sudoeste 19 Oeste 0 -- -- 67
2019-10-09 14:00:00 24.6 11 Noroeste 17 Oeste 0 -- -- 68
2019-10-09 13:00:00 25.2 6 Oeste 14 Oeste 0 -- -- 68
2019-10-09 12:00:00 25 8 Oeste 13 Sudoeste 0 -- -- 68
2019-10-09 11:00:00 25.9 0 Calma 9 Norte 0 -- -- 68
2019-10-09 10:00:00 21.7 8 Norte 14 Norte 0 -- -- 74
2019-10-09 09:00:00 20.3 8 Norte 13 Norte 0 -- -- 79
2019-10-09 08:00:00 20.6 9 Norte 12 Norte 0 -- -- 82
2019-10-09 07:00:00 19.8 12 Norte 14 Norte 0 -- -- 82
2019-10-09 06:00:00 20.2 10 Nordeste 16 Nordeste 0 -- -- 82
2019-10-09 05:00:00 20.9 6 Nordeste 12 Este 0 -- -- 83
2019-10-09 04:00:00 20.7 6 Nordeste 8 Nordeste 0 -- -- 82
2019-10-09 03:00:00 20.9 5 Norte 9 Norte 0 -- -- 81
2019-10-09 02:00:00 21.8 7 Este 14 Sudeste 0 -- -- 80
2019-10-09 01:00:00 22.1 7 Sudeste 11 Sudeste 0 -- -- 79
2019-10-09 00:00:00 22.2 5 Oeste 18 Oeste 0 -- -- 78
2019-10-08 23:00:00 22.6 10 Oeste 16 Oeste 0 -- -- 76
2019-10-08 22:00:00 22.6 5 Sudeste 19 Sudeste 0 -- -- 74
2019-10-08 21:00:00 22.9 15 Sudeste 35 Este 0 -- -- 73
2019-10-08 20:00:00 23.5 28 Sudeste 36 Sudeste 0 -- -- 72
2019-10-08 19:00:00 24 20 Sudeste 24 Sudeste 0 -- -- 69
2019-10-08 18:00:00 25.3 15 Sudeste 19 Este 0 -- -- 64
2019-10-08 17:00:00 25.3 3 Sur 20 Oeste 0 -- -- 66
2019-10-08 16:00:00 24.6 13 Oeste 20 Oeste 0 -- -- 69
2019-10-08 15:00:00 26.7 5 Sur 10 Sudeste 0 -- -- 64
2019-10-08 14:00:00 25.6 7 Sudeste 12 Sudeste 0 -- -- 68
2019-10-08 13:00:00 26 4 Sur 9 Sudoeste 0 -- -- 68
2019-10-08 12:00:00 24.7 5 Sudoeste 10 Oeste 0 -- -- 73
2019-10-08 11:00:00 24.4 8 Oeste 12 Sudoeste 0 -- -- 76
2019-10-08 10:00:00 23.9 0 Calma 9 Norte 0 -- -- 79
2019-10-08 09:00:00 20.4 9 Norte 13 Nordeste 0 -- -- 83
2019-10-08 08:00:00 20 10 Norte 13 Norte 0 -- -- 84
2019-10-08 07:00:00 20.3 10 Norte 13 Norte 0 -- -- 84
2019-10-08 06:00:00 20.4 10 Norte 13 Nordeste 0 -- -- 84
2019-10-08 05:00:00 20.7 9 Norte 13 Nordeste 0 -- -- 84
2019-10-08 04:00:00 21 8 Norte 11 Norte 0 -- -- 84
2019-10-08 03:00:00 21.5 6 Norte 12 Norte 0 -- -- 83
2019-10-08 02:00:00 21.6 5 Norte 10 Norte 0 -- -- 83
2019-10-08 01:00:00 21.9 4 Norte 6 Norte 0 -- -- 83
2019-10-08 00:00:00 21.9 0 Calma 5 Este 0 -- -- 84
2019-10-07 23:00:00 22 0 Calma 0 Calma 0 -- -- 83
2019-10-07 22:00:00 22.1 0 Calma 9 Oeste 0 -- -- 83
2019-10-07 21:00:00 22.4 6 Oeste 11 Oeste 0 -- -- 82
2019-10-07 20:00:00 22.7 5 Sur 17 Sudeste 0 -- -- 81
2019-10-07 19:00:00 23.6 15 Sudeste 22 Sudeste 0 -- -- 77
2019-10-07 18:00:00 24.3 18 Sudeste 21 Sudeste 0 -- -- 72
2019-10-07 17:00:00 25.2 12 Sudeste 14 Sudeste 0 -- -- 68
2019-10-07 16:00:00 25.1 12 Oeste 20 Oeste 0 -- -- 68
2019-10-07 15:00:00 24.4 13 Oeste 18 Oeste 0 -- -- 69
2019-10-07 14:00:00 24.9 14 Oeste 20 Oeste 0 -- -- 68
2019-10-07 13:00:00 24.9 12 Oeste 17 Oeste 0 -- -- 68
2019-10-07 12:00:00 25.1 10 Oeste 16 Oeste 0 -- -- 68
2019-10-07 11:00:00 24.7 7 Sudoeste 11 Sudoeste 0 -- -- 71
2019-10-07 10:00:00 23.5 0 Calma 10 Oeste 0 -- -- 76
2019-10-07 09:00:00 22.4 4 Oeste 12 Norte 0 -- -- 77
2019-10-07 08:00:00 22.2 6 Norte 10 Norte 0 -- -- 78
2019-10-07 07:00:00 22.1 2 Norte 8 Oeste 0 -- -- 79
2019-10-07 06:00:00 22.1 4 Noroeste 10 Oeste 0 -- -- 81
2019-10-07 05:00:00 22.3 10 Oeste 13 Oeste 0 -- -- 81
2019-10-07 04:00:00 22.3 6 Oeste 10 Sudoeste 0 -- -- 81
2019-10-07 03:00:00 22.3 6 Sudoeste 15 Sur 0 -- -- 81
2019-10-07 02:00:00 22.1 3 Sur 9 Sur 0 -- -- 82
2019-10-07 01:00:00 22.5 8 Sur 16 Sur 0 -- -- 82
2019-10-07 00:00:00 22.5 10 Sur 13 Sur 0 -- -- 81
2019-10-06 23:00:00 22.5 3 Sudoeste 7 Sudeste 0 -- -- 79
2019-10-06 22:00:00 22.7 4 Sudoeste 12 Sur 0 -- -- 78
2019-10-06 21:00:00 22.9 7 Sur 15 Sur 0 -- -- 78
2019-10-06 20:00:00 23 10 Sur 19 Sur 0 -- -- 77
2019-10-06 19:00:00 23.8 10 Sudoeste 13 Sur 0 -- -- 73
2019-10-06 18:00:00 25.4 7 Sur 12 Sur 0 -- -- 67
2019-10-06 17:00:00 24.7 9 Sur 12 Este 0 -- -- 68
2019-10-06 16:00:00 25.3 6 Sudeste 12 Sur 0 -- -- 67
2019-10-06 15:00:00 26 6 Sudeste 10 Sudeste 0 -- -- 67
2019-10-06 14:00:00 27.1 5 Sur 12 Sur 0 -- -- 63
2019-10-06 13:00:00 26.8 5 Sur 10 Sudoeste 0 -- -- 65
2019-10-06 12:00:00 26.4 5 Sur 9 Sur 0 -- -- 66
2019-10-06 11:00:00 24.5 6 Sudoeste 10 Sudoeste 0 -- -- 71
2019-10-06 10:00:00 23.7 4 Norte 16 Norte 0 -- -- 73
2019-10-06 09:00:00 20.9 13 Norte 17 Norte 0 -- -- 79
2019-10-06 08:00:00 20.4 11 Norte 15 Norte 0 -- -- 81
2019-10-06 07:00:00 21.1 9 Norte 15 Norte 0 -- -- 80
2019-10-06 06:00:00 21.2 12 Norte 15 Sudeste 0 -- -- 79
2019-10-06 05:00:00 22.5 10 Este 21 Este 0 -- -- 81
2019-10-06 04:00:00 22.3 11 Este 14 Este 0 -- -- 83
2019-10-06 03:00:00 21.6 5 Norte 8 Norte 0 -- -- 83
2019-10-06 02:00:00 22.4 8 Sudeste 11 Sudeste 0 -- -- 83
2019-10-06 01:00:00 22.6 5 Sur 7 Sur 0 -- -- 83
2019-10-06 00:00:00 22.6 0 Calma 16 Sudeste 0 -- -- 82
2019-10-05 23:00:00 23.3 15 Sudeste 23 Este 0 -- -- 81
2019-10-05 22:00:00 23.5 10 Sudeste 21 Este 0 -- -- 79
2019-10-05 21:00:00 23.2 8 Este 16 Este 0 -- -- 81
2019-10-05 20:00:00 23.6 9 Sudeste 20 Este 0 -- -- 78
2019-10-05 19:00:00 25 18 Sudeste 21 Sudeste 0 -- -- 74
2019-10-05 18:00:00 25.7 9 Sudeste 18 Sudeste 0 -- -- 70
2019-10-05 17:00:00 26.8 16 Sudeste 19 Sudeste 0 -- -- 61
2019-10-05 16:00:00 26.7 15 Sudeste 20 Sudeste 0 -- -- 63
2019-10-05 15:00:00 26.3 5 Sudeste 11 Sudeste 0 -- -- 66
2019-10-05 14:00:00 27.8 6 Sudeste 11 Sur 0 -- -- 63
2019-10-05 13:00:00 27 4 Sur 12 Sudoeste 0 -- -- 64
2019-10-05 12:00:00 25.5 6 Sur 17 Sudeste 0 -- -- 70
2019-10-05 11:00:00 25.7 14 Sudeste 18 Sudeste 0 -- -- 67
2019-10-05 10:00:00 23.4 5 Nordeste 11 Nordeste 0 -- -- 66
2019-10-05 09:00:00 21.7 6 Nordeste 14 Nordeste 0 -- -- 70
2019-10-05 08:00:00 20.6 8 Nordeste 14 Nordeste 0 -- -- 71
2019-10-05 07:00:00 20.6 10 Norte 17 Norte 0 -- -- 76
2019-10-05 06:00:00 21 9 Norte 17 Norte 0 -- -- 78
2019-10-05 05:00:00 20.7 10 Norte 13 Norte 0 -- -- 81
2019-10-05 04:00:00 21 4 Nordeste 12 Este 0 -- -- 82
2019-10-05 03:00:00 21.4 5 Nordeste 14 Sudeste 0 -- -- 84
2019-10-05 02:00:00 22.4 12 Sudeste 18 Este 0 -- -- 88
2019-10-05 01:00:00 22.9 5 Sudoeste 14 Norte 0 -- -- 88
2019-10-05 00:00:00 22.7 7 Norte 21 Sudeste 0 -- -- 88
2019-10-04 23:00:00 22.8 14 Sudeste 19 Sudeste 0 -- -- 87
2019-10-04 22:00:00 22.9 0 Calma 7 Sudeste 0 -- -- 84
2019-10-04 21:00:00 23.4 5 Sudeste 17 Sudeste 0 -- -- 83
2019-10-04 20:00:00 23.6 15 Sudeste 18 Sudeste 0 -- -- 80
2019-10-04 19:00:00 25.4 6 Sudeste 14 Sudeste 0 -- -- 73
2019-10-04 18:00:00 25.2 13 Sudeste 27 Sudeste 0 -- -- 73
2019-10-04 17:00:00 25.7 19 Sudeste 21 Sudeste 0 -- -- 71
2019-10-04 16:00:00 26 15 Sudeste 20 Sudeste 0 -- -- 69
2019-10-04 15:00:00 26.6 10 Sudeste 17 Sudeste 0 -- -- 69
2019-10-04 14:00:00 25.8 9 Sur 18 Sur 0 -- -- 71
2019-10-04 13:00:00 24.7 12 Sudeste 17 Sudeste 0 -- -- 74
2019-10-04 12:00:00 25 13 Sudeste 17 Sudeste 0 -- -- 77
2019-10-04 11:00:00 24.8 14 Sur 17 Sur 0 -- -- 77
2019-10-04 10:00:00 24.5 9 Sudeste 21 Este 0 -- -- 78
2019-10-04 09:00:00 23.4 12 Este 20 Sudeste 0 -- -- 81
2019-10-04 08:00:00 22.1 6 Este 13 Este 0 -- -- 76
2019-10-04 07:00:00 22.1 2 Este 12 Norte 0 -- -- 75
2019-10-04 06:00:00 21.3 6 Norte 13 Nordeste 0 -- -- 78
2019-10-04 05:00:00 21.3 8 Norte 12 Este 0 -- -- 84
2019-10-04 04:00:00 22.8 0 Calma 13 Nordeste 0 -- -- 88
2019-10-04 03:00:00 22.4 10 Nordeste 14 Norte 0 -- -- 81
2019-10-04 02:00:00 22.7 4 Sudeste 8 Sudeste 0 -- -- 89
2019-10-04 01:00:00 22.6 4 Nordeste 9 Norte 0 -- -- 88
2019-10-04 00:00:00 23 2 Sudoeste 10 Sur 0 -- -- 88
2019-10-03 23:00:00 23.3 6 Sudeste 12 Sudeste 0 -- -- 87
2019-10-03 22:00:00 23.6 9 Sudeste 15 Sudeste 0 -- -- 85
2019-10-03 21:00:00 23.8 8 Sudeste 13 Este 0 -- -- 82
2019-10-03 20:00:00 24.1 6 Sudeste 8 Sur 0 -- -- 80
2019-10-03 19:00:00 25.7 4 Sudeste 12 Sudeste 0 -- -- 73
2019-10-03 18:00:00 25.7 6 Sudeste 14 Sudeste 0 -- -- 73
2019-10-03 17:00:00 26.5 7 Sudeste 11 Este 0 -- -- 68
2019-10-03 16:00:00 27.8 4 Sur 9 Sudeste 0 -- -- 61
2019-10-03 15:00:00 29.5 6 Sudeste 11 Este 0 -- -- 56
2019-10-03 14:00:00 28.2 4 Sur 8 Oeste 0 -- -- 61
2019-10-03 13:00:00 27.6 3 Sudoeste 12 Oeste 0 -- -- 62
2019-10-03 12:00:00 27.3 6 Oeste 9 Sudoeste 0 -- -- 60
2019-10-03 11:00:00 28.1 0 Calma 7 Oeste 0 -- -- 56
2019-10-03 10:00:00 26.7 0 Calma 12 Norte 0 -- -- 59
2019-10-03 09:00:00 22.6 8 Norte 13 Norte 0 -- -- 62
2019-10-03 08:00:00 21.3 10 Nordeste 13 Nordeste 0 -- -- 68
2019-10-03 07:00:00 21.4 10 Norte 14 Norte 0 -- -- 76
2019-10-03 06:00:00 22 4 Norte 12 Nordeste 0 -- -- 77
2019-10-03 05:00:00 22.2 9 Norte 12 Norte 0 -- -- 78
2019-10-03 04:00:00 22 8 Norte 12 Norte 0 -- -- 81
2019-10-03 03:00:00 22.5 7 Norte 12 Norte 0 -- -- 82
2019-10-03 02:00:00 22.5 7 Norte 14 Sudeste 0 -- -- 85
2019-10-03 01:00:00 23.3 9 Sudeste 14 Sudeste 0 -- -- 87
2019-10-03 00:00:00 23.1 0 Calma 8 Nordeste 0 -- -- 87
2019-10-02 23:00:00 22.5 3 Sudeste 4 Sudeste 0 -- -- 87
2019-10-02 22:00:00 23.1 0 Calma 0 Calma 0 -- -- 85
2019-10-02 21:00:00 23.5 2 Sudoeste 6 Este 0 -- -- 85
2019-10-02 20:00:00 23.9 5 Este 19 Sudeste 0 -- -- 82
2019-10-02 19:00:00 25 17 Sudeste 21 Sudeste 0 -- -- 77
2019-10-02 18:00:00 26.4 8 Sudeste 9 Sudeste 0 -- -- 70
2019-10-02 17:00:00 27.5 5 Sudoeste 12 Sudoeste 0 -- -- 67
2019-10-02 16:00:00 26.6 10 Oeste 17 Oeste 0 -- -- 68
2019-10-02 15:00:00 28.6 4 Sudoeste 10 Oeste 0 -- -- 60
2019-10-02 14:00:00 28.2 5 Sudoeste 9 Sudoeste 0 -- -- 61
2019-10-02 13:00:00 29 2 Sur 8 Sudoeste 0 -- -- 62
2019-10-02 12:00:00 28.2 5 Oeste 12 Oeste 0 -- -- 62
2019-10-02 11:00:00 25.7 10 Oeste 15 Oeste 0 -- -- 67
2019-10-02 10:00:00 27 2 Oeste 9 Norte 0 -- -- 60
2019-10-02 09:00:00 23.1 5 Norte 12 Nordeste 0 -- -- 61
2019-10-02 08:00:00 22.5 3 Nordeste 12 Norte 0 -- -- 67
2019-10-02 07:00:00 21.9 8 Nordeste 11 Nordeste 0 -- -- 64
2019-10-02 06:00:00 21.6 6 Norte 10 Sudeste 0 -- -- 73
2019-10-02 05:00:00 22.8 3 Sudeste 8 Sudeste 0 -- -- 81
2019-10-02 04:00:00 22 3 Nordeste 17 Nordeste 0 -- -- 82
2019-10-02 03:00:00 22.9 8 Sudeste 11 Sudeste 0 -- -- 85
2019-10-02 02:00:00 22.9 0 Calma 10 Sudeste 0 -- -- 77
2019-10-02 01:00:00 24.5 0 Calma 9 Norte 0 -- -- 67
2019-10-02 00:00:00 25 3 Este 5 Norte 0 -- -- 65
2019-10-01 23:00:00 25 4 Norte 7 Nordeste 0 -- -- 66
2019-10-01 22:00:00 24.6 2 Este 9 Este 0 -- -- 67
2019-10-01 21:00:00 24.9 3 Sudeste 13 Sudeste 0 -- -- 66
2019-10-01 20:00:00 25.5 8 Sudeste 12 Este 0 -- -- 63
2019-10-01 19:00:00 27.4 6 Sudeste 11 Sudeste 0 -- -- 59
2019-10-01 18:00:00 27.8 3 Sudeste 15 Sudeste 0 -- -- 63
2019-10-01 17:00:00 26.9 14 Sudeste 18 Sudeste 0 -- -- 69
2019-10-01 16:00:00 27.3 8 Sudeste 11 Sudeste 0 -- -- 72
2019-10-01 15:00:00 29 6 Sudeste 15 Sudeste 0 -- -- 66
2019-10-01 14:00:00 27.1 13 Sudeste 18 Sudeste 0 -- -- 67
2019-10-01 13:00:00 26.8 9 Sudeste 13 Sudeste 0 -- -- 68
2019-10-01 12:00:00 26.7 6 Sudoeste 22 Oeste 0 -- -- 70
2019-10-01 11:00:00 25.1 14 Oeste 20 Oeste 0 -- -- 68
2019-10-01 10:00:00 25.4 7 Sudeste 11 Norte 0 -- -- 71
2019-10-01 09:00:00 22.7 8 Norte 17 Nordeste 0 -- -- 61
2019-10-01 08:00:00 22.3 11 Norte 15 Norte 0 -- -- 64
2019-10-01 07:00:00 22 11 Nordeste 16 Nordeste 0 -- -- 70
2019-10-01 06:00:00 21.4 8 Nordeste 10 Norte 0 -- -- 81
2019-10-01 05:00:00 22.4 0 Calma 19 Norte 0 -- -- 85
2019-10-01 04:00:00 22.3 3 Nordeste 12 Sudeste 0 -- -- 90
2019-10-01 03:00:00 22.3 4 Nordeste 12 Sudeste 0 -- -- 90
2019-10-01 02:00:00 22.6 11 Sudeste 13 Sudeste 0 -- -- 90
2019-10-01 01:00:00 22.8 4 Sudoeste 10 Sudeste 0 -- -- 90
2019-10-01 00:00:00 23.1 9 Sudeste 16 Sudeste 0 -- -- 88
2019-09-30 23:00:00 23 0 Calma 7 Nordeste 0 -- -- 87
2019-09-30 22:00:00 23.2 6 Nordeste 10 Norte 0 -- -- 87
2019-09-30 21:00:00 23.2 0 Calma 8 Oeste 0 -- -- 85
2019-09-30 20:00:00 23.6 4 Sudeste 23 Sudeste 0 -- -- 84
2019-09-30 19:00:00 24.5 21 Sudeste 27 Sudeste 0 -- -- 80
2019-09-30 18:00:00 25.4 15 Sudeste 19 Sudeste 0 -- -- 76
2019-09-30 17:00:00 26.8 4 Sur 13 Sur 0 -- -- 72
2019-09-30 16:00:00 25.6 10 Sudoeste 21 Sur 0 -- -- 77
2019-09-30 15:00:00 27.2 12 Sudeste 16 Este 0 -- -- 72
2019-09-30 14:00:00 26 11 Sudeste 15 Sudeste 0 -- -- 77
2019-09-30 13:00:00 27.7 6 Sudeste 12 Sudeste 0 -- -- 64
2019-09-30 12:00:00 28.3 3 Sudoeste 8 Oeste 0 -- -- 54
2019-09-30 11:00:00 27.7 4 Oeste 12 Oeste 0 -- -- 56
2019-09-30 10:00:00 25.2 10 Oeste 14 Oeste 0 -- -- 61
2019-09-30 09:00:00 24.9 9 Norte 18 Nordeste 0 -- -- 50
2019-09-30 08:00:00 22.4 3 Norte 14 Norte 0 -- -- 71
2019-09-30 07:00:00 23.3 14 Norte 21 Norte 0 -- -- 59
2019-09-30 06:00:00 22.3 4 Sudeste 15 Este 0 -- -- 84
2019-09-30 05:00:00 21.4 10 Norte 15 Norte 0 -- -- 84
2019-09-30 04:00:00 22.3 4 Este 18 Nordeste 0 -- -- 89
2019-09-30 03:00:00 21.6 6 Nordeste 12 Oeste 0 -- -- 90
2019-09-30 02:00:00 22.5 9 Oeste 16 Noroeste 0 -- -- 90
2019-09-30 01:00:00 22.5 10 Oeste 12 Oeste 0 -- -- 89
2019-09-30 00:00:00 22.5 4 Este 9 Este 0 -- -- 89
2019-09-29 23:00:00 22.4 0 Calma 4 Oeste 0 -- -- 87
2019-09-29 22:00:00 22.5 0 Calma 7 Oeste 0 -- -- 85
2019-09-29 21:00:00 22.8 0 Calma 12 Sudeste 0 -- -- 84
2019-09-29 20:00:00 23.4 11 Sudeste 14 Sudeste 0 -- -- 82
2019-09-29 19:00:00 24.3 4 Sur 6 Sudeste 0 -- -- 77
2019-09-29 18:00:00 25.7 3 Sudeste 13 Sudeste 0 -- -- 77
2019-09-29 17:00:00 24.8 8 Sudeste 12 Oeste 0 -- -- 74
2019-09-29 16:00:00 25.3 9 Oeste 17 Oeste 0 -- -- 72
2019-09-29 15:00:00 26.3 5 Sur 10 Sur 0 -- -- 69
2019-09-29 14:00:00 26.7 7 Sur 14 Sudoeste 0 -- -- 69
2019-09-29 13:00:00 25.7 10 Oeste 14 Oeste 0 -- -- 73
2019-09-29 12:00:00 25.1 7 Oeste 13 Oeste 0 -- -- 77
2019-09-29 11:00:00 25.1 7 Sudoeste 11 Sudoeste 0 -- -- 77
2019-09-29 10:00:00 23.3 6 Este 10 Este 0 -- -- 83
2019-09-29 09:00:00 22.1 0 Calma 12 Noroeste 0 -- -- 84
2019-09-29 08:00:00 21.9 6 Norte 11 Oeste 0 -- -- 84
2019-09-29 07:00:00 22 4 Noroeste 10 Sur 0 -- -- 84
2019-09-29 06:00:00 22.1 2 Sudoeste 10 Nordeste 0 -- -- 84
2019-09-29 05:00:00 21.9 5 Nordeste 14 Nordeste 0 -- -- 84
2019-09-29 04:00:00 21.1 6 Norte 8 Nordeste 0 -- -- 84
2019-09-29 03:00:00 21.5 6 Norte 8 Norte 0 -- -- 84
2019-09-29 02:00:00 21.7 3 Nordeste 10 Sudeste 0 -- -- 84
2019-09-29 01:00:00 22.2 7 Este 12 Este 0 -- -- 83
2019-09-29 00:00:00 22.3 6 Sudeste 9 Sudeste 0 -- -- 83
2019-09-28 23:00:00 22.3 6 Sudeste 8 Este 0 -- -- 82
2019-09-28 22:00:00 22.2 0 Calma 5 Sudoeste 0 -- -- 82
2019-09-28 21:00:00 22.4 2 Sudoeste 7 Sudoeste 0 -- -- 81
2019-09-28 20:00:00 22.8 6 Sur 23 Sudeste 0 -- -- 79
2019-09-28 19:00:00 23.9 22 Sudeste 28 Sudeste 0 -- -- 73
2019-09-28 18:00:00 24.9 14 Sudeste 17 Sudeste 0 -- -- 69
2019-09-28 17:00:00 25.1 8 Sur 14 Sudoeste 0 -- -- 67
2019-09-28 16:00:00 24.5 13 Sudoeste 23 Sudoeste 0 -- -- 69
2019-09-28 15:00:00 25.3 16 Oeste 20 Oeste 0 -- -- 67
2019-09-28 14:00:00 25.9 5 Sudoeste 10 Sur 0 -- -- 66
2019-09-28 13:00:00 25.4 5 Sudoeste 14 Oeste 0 -- -- 71
2019-09-28 12:00:00 24.2 9 Oeste 15 Oeste 0 -- -- 74
2019-09-28 11:00:00 23.8 8 Oeste 13 Oeste 0 -- -- 77
2019-09-28 10:00:00 23.6 6 Oeste 12 Oeste 0 -- -- 78
2019-09-28 09:00:00 21.5 3 Norte 10 Nordeste 0 -- -- 82
2019-09-28 08:00:00 20.7 6 Nordeste 13 Norte 0 -- -- 82
2019-09-28 07:00:00 20.5 11 Norte 13 Norte 0 -- -- 82
2019-09-28 06:00:00 20.6 8 Norte 12 Norte 0 -- -- 82
2019-09-28 05:00:00 20.8 9 Norte 10 Norte 0 -- -- 81
2019-09-28 04:00:00 21.9 0 Calma 4 Nordeste 0 -- -- 81
2019-09-28 03:00:00 21.5 5 Norte 9 Nordeste 0 -- -- 79
2019-09-28 02:00:00 22 6 Nordeste 10 Sudeste 0 -- -- 79
2019-09-28 01:00:00 22.2 6 Este 9 Este 0 -- -- 82
2019-09-28 00:00:00 22.5 4 Oeste 14 Oeste 0 -- -- 81
2019-09-27 23:00:00 22.7 6 Sudeste 15 Sudeste 0 -- -- 79
2019-09-27 22:00:00 23.4 7 Este 15 Este 0 -- -- 74
2019-09-27 21:00:00 22.7 6 Sudeste 11 Oeste 0 -- -- 78
2019-09-27 20:00:00 23.1 8 Sudoeste 15 Oeste 0 -- -- 76
2019-09-27 19:00:00 23.9 10 Oeste 16 Oeste 0 -- -- 72
2019-09-27 18:00:00 25.4 4 Sudoeste 26 Este 0 -- -- 68
2019-09-27 17:00:00 25.3 22 Sudeste 27 Sudeste 0 -- -- 69
2019-09-27 16:00:00 25.1 11 Sudeste 14 Sudeste 0 -- -- 69
2019-09-27 15:00:00 25.1 9 Sudoeste 17 Sudoeste 0 -- -- 68
2019-09-27 14:00:00 26.6 8 Oeste 14 Oeste 0 -- -- 67
2019-09-27 13:00:00 27.1 3 Sur 8 Sur 0 -- -- 65
2019-09-27 12:00:00 26.2 5 Sur 9 Sudoeste 0 -- -- 67
2019-09-27 11:00:00 24.8 6 Sudoeste 14 Oeste 0 -- -- 72
2019-09-27 10:00:00 23.7 7 Oeste 12 Norte 0 -- -- 75
2019-09-27 09:00:00 21.2 10 Norte 14 Norte 0 -- -- 78
2019-09-27 08:00:00 20.5 11 Norte 14 Norte 0 -- -- 79
2019-09-27 07:00:00 20.9 8 Norte 16 Norte 0 -- -- 79
2019-09-27 06:00:00 21 11 Norte 14 Norte 0 -- -- 79
2019-09-27 05:00:00 21.1 12 Norte 13 Norte 0 -- -- 80
2019-09-27 04:00:00 22.1 9 Este 15 Este 0 -- -- 79
2019-09-27 03:00:00 21.5 2 Nordeste 7 Norte 0 -- -- 77
2019-09-27 02:00:00 22.3 4 Sudoeste 7 Sudoeste 0 -- -- 79
2019-09-27 01:00:00 22.5 4 Norte 7 Nordeste 0 -- -- 75
2019-09-27 00:00:00 22.5 0 Calma 6 Nordeste 0 -- -- 76
2019-09-26 23:00:00 22.8 3 Nordeste 11 Noroeste 0 -- -- 76
2019-09-26 22:00:00 23.1 12 Noroeste 19 Noroeste 0 -- -- 76
2019-09-26 21:00:00 23.4 13 Noroeste 17 Noroeste 0 -- -- 71
2019-09-26 20:00:00 23.3 14 Este 31 Sudeste 0 -- -- 75
2019-09-26 19:00:00 24.5 19 Sudeste 23 Sudeste 0 -- -- 70
2019-09-26 18:00:00 24.8 10 Sudeste 12 Sudeste 0 -- -- 67
2019-09-26 17:00:00 24.9 10 Sudoeste 20 Oeste 0 -- -- 71
2019-09-26 16:00:00 24.7 10 Sudoeste 19 Sudeste 0 -- -- 69
2019-09-26 15:00:00 25.7 17 Sudeste 19 Sudeste 0 -- -- 67
2019-09-26 14:00:00 25.9 7 Sur 17 Sudoeste 0 -- -- 66
2019-09-26 13:00:00 25 13 Oeste 19 Oeste 0 -- -- 72
2019-09-26 12:00:00 24.5 10 Oeste 17 Sudeste 0 -- -- 71
2019-09-26 11:00:00 24.2 17 Sudeste 19 Sudeste 0 -- -- 73
2019-09-26 10:00:00 25.2 4 Este 15 Norte 0 -- -- 71
2019-09-26 09:00:00 21.4 12 Norte 16 Norte 0 -- -- 77
2019-09-26 08:00:00 20.7 10 Norte 16 Norte 0 -- -- 78
2019-09-26 07:00:00 20.7 6 Nordeste 17 Este 0 -- -- 79
2019-09-26 06:00:00 20.5 8 Norte 12 Norte 0 -- -- 78
2019-09-26 05:00:00 20.9 6 Norte 14 Norte 0 -- -- 77
2019-09-26 04:00:00 20.9 11 Norte 13 Norte 0 -- -- 78
2019-09-26 03:00:00 21.7 3 Norte 13 Sudeste 0 -- -- 78
2019-09-26 02:00:00 22.1 10 Este 14 Sudeste 0 -- -- 81
2019-09-26 01:00:00 22.4 3 Oeste 30 Noroeste 0 -- -- 78
2019-09-26 00:00:00 22.7 8 Oeste 10 Oeste 0 -- -- 76
2019-09-25 23:00:00 23.1 8 Sudeste 22 Sudeste 0 -- -- 75
2019-09-25 22:00:00 22.9 15 Sudeste 21 Sudeste 0 -- -- 80
2019-09-25 21:00:00 22.7 8 Sudeste 13 Sudeste 0 -- -- 78
2019-09-25 20:00:00 22.9 9 Sudoeste 12 Oeste 0 -- -- 78
2019-09-25 19:00:00 24.4 5 Sur 24 Sudeste 0 -- -- 73
2019-09-25 18:00:00 24.9 22 Sudeste 25 Sudeste 0 -- -- 69
2019-09-25 17:00:00 25 9 Sudeste 13 Sudeste 0 -- -- 67
2019-09-25 16:00:00 25.7 6 Sur 15 Oeste 0 -- -- 66
2019-09-25 15:00:00 25.3 13 Oeste 20 Oeste 0 -- -- 67
2019-09-25 14:00:00 25.8 9 Oeste 13 Oeste 0 -- -- 67
2019-09-25 13:00:00 25.3 10 Sudeste 15 Sudeste 0 -- -- 67
2019-09-25 12:00:00 24.6 12 Sudeste 14 Sudeste 0 -- -- 67
2019-09-25 11:00:00 25.2 4 Sur 11 Oeste 0 -- -- 68
2019-09-25 10:00:00 23.7 6 Oeste 17 Norte 0 -- -- 71
2019-09-25 09:00:00 20.3 12 Norte 15 Norte 0 -- -- 73
2019-09-25 08:00:00 19.8 9 Norte 26 Norte 0 -- -- 77
2019-09-25 07:00:00 20.2 9 Norte 10 Norte 0 -- -- 77
2019-09-25 06:00:00 20.4 8 Norte 12 Norte 0 -- -- 77
2019-09-25 05:00:00 20.4 10 Norte 13 Norte 0 -- -- 77
2019-09-25 04:00:00 20.8 9 Norte 20 Sudeste 0 -- -- 78
2019-09-25 03:00:00 21.9 8 Este 17 Este 0 -- -- 81
2019-09-25 02:00:00 21.4 4 Nordeste 7 Norte 0 -- -- 79
2019-09-25 01:00:00 21.6 0 Calma 5 Norte 0 -- -- 81
2019-09-25 00:00:00 21.9 0 Calma 8 Sudeste 0 -- -- 79
2019-09-24 23:00:00 22.4 4 Sudeste 13 Este 0 -- -- 78
2019-09-24 22:00:00 22.5 4 Este 10 Este 0 -- -- 77
2019-09-24 21:00:00 22.6 6 Oeste 10 Oeste 0 -- -- 76
2019-09-24 20:00:00 23 8 Sudoeste 23 Sudeste 0 -- -- 74
2019-09-24 19:00:00 24.5 23 Sudeste 29 Sudeste 0 -- -- 71
2019-09-24 18:00:00 26.2 5 Sudeste 14 Sudoeste 0 -- -- 63
2019-09-24 17:00:00 24.2 13 Sudoeste 18 Sudoeste 0 -- -- 71
2019-09-24 16:00:00 25 10 Oeste 15 Noroeste 0 -- -- 67
2019-09-24 15:00:00 26.2 6 Sur 18 Sudeste 0 -- -- 63
2019-09-24 14:00:00 24.7 10 Sudeste 14 Sudeste 0 -- -- 67
2019-09-24 13:00:00 24.9 10 Sudoeste 15 Oeste 0 -- -- 68
2019-09-24 12:00:00 25.2 9 Oeste 14 Oeste 0 -- -- 68
2019-09-24 11:00:00 24.4 7 Sudoeste 12 Sur 0 -- -- 71
2019-09-24 10:00:00 25.3 0 Calma 11 Norte 0 -- -- 71
2019-09-24 09:00:00 21.5 8 Norte 15 Norte 0 -- -- 76
2019-09-24 08:00:00 20.7 12 Norte 14 Norte 0 -- -- 78
2019-09-24 07:00:00 20.7 8 Norte 14 Norte 0 -- -- 78
2019-09-24 06:00:00 20.6 10 Norte 13 Norte 0 -- -- 78
2019-09-24 05:00:00 21.3 5 Nordeste 7 Nordeste 0 -- -- 78
2019-09-24 04:00:00 21.8 5 Este 10 Este 0 -- -- 78
2019-09-24 03:00:00 22.1 2 Oeste 6 Oeste 0 -- -- 76
2019-09-24 02:00:00 22.6 3 Sur 14 Sudeste 0 -- -- 72
2019-09-24 01:00:00 23.3 9 Este 21 Este 0 -- -- 67
2019-09-24 00:00:00 23.3 7 Este 12 Este 0 -- -- 71
2019-09-23 23:00:00 22.4 0 Calma 11 Sudoeste 0 -- -- 79
2019-09-23 22:00:00 22.4 0 Calma 15 Sudeste 0 -- -- 77
2019-09-23 21:00:00 22.9 14 Sudeste 19 Sudeste 0 -- -- 77
2019-09-23 20:00:00 23.2 13 Sudeste 16 Sudeste 0 -- -- 74
2019-09-23 19:00:00 23.8 12 Sudoeste 21 Oeste 0 -- -- 72
2019-09-23 18:00:00 24.6 12 Oeste 18 Oeste 0 -- -- 68
2019-09-23 17:00:00 25.8 6 Sur 21 Sudeste 0 -- -- 66
2019-09-23 16:00:00 25.3 15 Sudeste 18 Sudeste 0 -- -- 67
2019-09-23 15:00:00 24.7 13 Sudeste 17 Sudeste 0 -- -- 67
2019-09-23 14:00:00 27.1 4 Sudoeste 13 Oeste 0 -- -- 63
2019-09-23 13:00:00 24.7 12 Oeste 15 Oeste 0 -- -- 73
2019-09-23 12:00:00 24.2 5 Sudoeste 13 Sur 0 -- -- 76
2019-09-23 11:00:00 23.3 10 Sudeste 15 Sur 0 -- -- 81
2019-09-23 10:00:00 23.5 5 Sur 11 Sur 0 -- -- 82
2019-09-23 09:00:00 22.9 6 Sudoeste 13 Oeste 0 -- -- 85
2019-09-23 08:00:00 22.7 8 Noroeste 10 Oeste 0 -- -- 87
2019-09-23 07:00:00 22.6 0 Calma 15 Sudeste 0 -- -- 89
2019-09-23 06:00:00 22.7 8 Sudeste 10 Sudeste 0 -- -- 87
2019-09-23 05:00:00 22.7 0 Calma 3 Este 0 -- -- 88
2019-09-23 04:00:00 22.9 2 Oeste 9 Oeste 0 -- -- 87
2019-09-23 03:00:00 22.9 4 Oeste 7 Oeste 0 -- -- 87
2019-09-23 02:00:00 23.2 0 Calma 8 Este 0 -- -- 87
2019-09-23 01:00:00 22.8 4 Este 7 Este 0 -- -- 87
2019-09-23 00:00:00 22.8 4 Oeste 8 Oeste 0 -- -- 88
2019-09-22 23:00:00 23.1 3 Sur 17 Sudeste 0 -- -- 88
2019-09-22 22:00:00 23.3 15 Sudeste 19 Sudeste 0 -- -- 86
2019-09-22 21:00:00 23.5 11 Sudeste 13 Sudeste 0 -- -- 81
2019-09-22 20:00:00 24.1 2 Sur 11 Este 0 -- -- 76
2019-09-22 19:00:00 25.2 5 Sur 12 Oeste 0 -- -- 70
2019-09-22 18:00:00 25.4 5 Sudoeste 14 Oeste 0 -- -- 68
2019-09-22 17:00:00 25.2 8 Sudoeste 15 Sudoeste 0 -- -- 67
2019-09-22 16:00:00 25.9 11 Oeste 16 Oeste 0 -- -- 66
2019-09-22 15:00:00 26.8 5 Sudoeste 12 Sudeste 0 -- -- 63
2019-09-22 14:00:00 27.2 8 Sudeste 14 Sudeste 0 -- -- 66
2019-09-22 13:00:00 25.4 5 Sudeste 10 Sudoeste 0 -- -- 69
2019-09-22 12:00:00 24.8 7 Sudoeste 13 Oeste 0 -- -- 72
2019-09-22 11:00:00 24.3 6 Sudoeste 12 Oeste 0 -- -- 75
2019-09-22 10:00:00 24.9 2 Sur 10 Norte 0 -- -- 74
2019-09-22 09:00:00 21.4 9 Norte 12 Norte 0 -- -- 79
2019-09-22 08:00:00 20.8 9 Norte 12 Norte 0 -- -- 82
2019-09-22 07:00:00 20.9 9 Norte 12 Norte 0 -- -- 82
2019-09-22 06:00:00 21.2 7 Norte 11 Norte 0 -- -- 82
2019-09-22 05:00:00 22.1 5 Sudeste 9 Sudeste 0 -- -- 82
2019-09-22 04:00:00 21.7 2 Norte 7 Norte 0 -- -- 83
2019-09-22 03:00:00 21.9 5 Sudeste 8 Sudeste 0 -- -- 83
2019-09-22 02:00:00 22.1 5 Sur 8 Sur 0 -- -- 83
2019-09-22 01:00:00 22.3 0 Calma 4 Sudeste 0 -- -- 82
2019-09-22 00:00:00 22.1 2 Sur 6 Oeste 0 -- -- 81
2019-09-21 23:00:00 22.2 3 Oeste 6 Oeste 0 -- -- 79
2019-09-21 22:00:00 22.6 0 Calma 11 Sudeste 0 -- -- 79
2019-09-21 21:00:00 22.6 9 Sudeste 17 Sudeste 0 -- -- 78
2019-09-21 20:00:00 22.9 14 Sudeste 19 Sudeste 0 -- -- 77
2019-09-21 19:00:00 23.3 15 Sudeste 18 Sudeste 0 -- -- 77
2019-09-21 18:00:00 23.9 13 Sudeste 17 Sudeste 0 -- -- 74
2019-09-21 17:00:00 23.9 13 Sudeste 16 Sudeste 0 -- -- 74
2019-09-21 16:00:00 25.5 8 Sur 14 Sudeste 0 -- -- 69
2019-09-21 15:00:00 25.6 9 Sur 14 Sur 0 -- -- 67
2019-09-21 14:00:00 24.8 9 Sur 14 Sudoeste 0 -- -- 69
2019-09-21 13:00:00 24.8 8 Sudoeste 13 Oeste 0 -- -- 69
2019-09-21 12:00:00 25 8 Oeste 13 Oeste 0 -- -- 71
2019-09-21 11:00:00 25.2 6 Oeste 10 Sudoeste 0 -- -- 71
2019-09-21 10:00:00 24.7 0 Calma 11 Norte 0 -- -- 76
2019-09-21 09:00:00 20.6 9 Norte 14 Norte 0 -- -- 79
2019-09-21 08:00:00 19.9 11 Norte 14 Norte 0 -- -- 82
2019-09-21 07:00:00 20 9 Norte 12 Norte 0 -- -- 82
2019-09-21 06:00:00 20.4 9 Norte 13 Norte 0 -- -- 81
2019-09-21 05:00:00 20.5 10 Norte 13 Norte 0 -- -- 81
2019-09-21 04:00:00 21.1 6 Norte 9 Nordeste 0 -- -- 81
2019-09-21 03:00:00 21.7 3 Norte 7 Norte 0 -- -- 81
2019-09-21 02:00:00 21.8 3 Norte 4 Norte 0 -- -- 82
2019-09-21 01:00:00 21.8 0 Calma 10 Este 0 -- -- 81
2019-09-21 00:00:00 22 8 Este 15 Este 0 -- -- 81
2019-09-20 23:00:00 22.1 7 Sudeste 12 Este 0 -- -- 81
2019-09-20 22:00:00 22.3 6 Sudeste 12 Sudeste 0 -- -- 79
2019-09-20 21:00:00 22.5 6 Sur 11 Sur 0 -- -- 78
2019-09-20 20:00:00 22.9 5 Sudeste 20 Sur 0 -- -- 76
2019-09-20 19:00:00 23.6 18 Sur 26 Sur 0 -- -- 74
2019-09-20 18:00:00 24.5 14 Sur 19 Sur 0 -- -- 69
2019-09-20 17:00:00 24.8 13 Sur 16 Sur 0 -- -- 69
2019-09-20 16:00:00 26.3 6 Sur 21 Sur 0 -- -- 64
2019-09-20 15:00:00 23.5 18 Sudeste 22 Sudeste 0 -- -- 73
2019-09-20 14:00:00 25.7 6 Sur 17 Oeste 0 -- -- 65
2019-09-20 13:00:00 24.4 12 Oeste 23 Noroeste 0 -- -- 68
2019-09-20 12:00:00 23.5 17 Oeste 24 Oeste 0 -- -- 72
2019-09-20 11:00:00 24 8 Sudeste 25 Este 0 -- -- 70
2019-09-20 10:00:00 23.4 17 Este 38 Este 0 -- -- 75
2019-09-20 09:00:00 22.6 14 Este 26 Este 0 -- -- 76
2019-09-20 08:00:00 20.1 11 Norte 13 Norte 0 -- -- 76
2019-09-20 07:00:00 21 6 Norte 13 Norte 0 -- -- 78
2019-09-20 06:00:00 20.5 5 Norte 23 Sudeste 0 -- -- 78
2019-09-20 05:00:00 22.1 17 Sudeste 23 Sudeste 0 -- -- 77
2019-09-20 04:00:00 21.4 8 Nordeste 12 Norte 0 -- -- 77
2019-09-20 03:00:00 21.5 3 Nordeste 11 Oeste 0 -- -- 83
2019-09-20 02:00:00 21.8 5 Oeste 11 Sudeste 0 -- -- 83
2019-09-20 01:00:00 22 12 Sudeste 19 Sudeste 0 -- -- 83
2019-09-20 00:00:00 22.9 12 Sudeste 17 Norte 0 -- -- 78